Time;durP1;ratioP1;P1;durP2;ratioP2;P2;SDS_P1;SDS_P2;PMS_P1;PMS_P2;Temp;Humidity;BMP_temperature;BMP_pressure;BME280_temperature;BME280_humidity;BME280_pressure;Samples;Min_cycle;Max_cycle;Signal;HPM_P1;HPM_P2
2021/11/03 00:00:16;;;;;;;;;;;;;;;;;;1010158;29;968;-23
2021/11/03 00:00:49;;;;;;;;;;;;;;;;;;1010042;29;1509;-22
2021/11/03 00:01:23;;;;;;;;;;;;;;;;;;1009475;29;1289;-21
2021/11/03 00:01:53;;;;;;;;;;;;;;;;;;1009512;29;1090;-22
2021/11/03 00:02:24;;;;;;;;;;;;;;;;;;1009365;29;1010;-22
2021/11/03 00:02:55;;;;;;;;;;;;;;;;;;1009789;29;985;-21
2021/11/03 00:03:26;;;;;;;;;;;;;;;;;;1010347;29;1022;-22
2021/11/03 00:03:57;;;;;;;;;;;;;;;;;;1010202;29;982;-20
2021/11/03 00:04:29;;;;;;;;;;;;;;;;;;1010240;29;1018;-23
2021/11/03 00:05:06;;;;;;;;;;;;;;;;;;1011081;29;1366;-22
2021/11/03 00:05:44;;;;;;;;;;;;;;;;;;1017168;29;1127;-22
2021/11/03 00:06:16;;;;;;;;;;;;;;;;;;1016942;29;1042;-22
2021/11/03 00:06:46;;;;;;;;;;;;;;;;;;1017376;29;839;-21
2021/11/03 00:07:17;;;;;;;;;;;;;;;;;;1011813;29;1110;-22
2021/11/03 00:07:48;;;;;;;;;;;;;;;;;;1020945;29;1036;-23
2021/11/03 00:08:20;;;;;;;;;;;;;;;;;;1021366;29;982;-23
2021/11/03 00:08:53;;;;;;;;;;;;;;;;;;1021251;29;933;-21
2021/11/03 00:09:23;;;;;;;;;;;;;;;;;;1019913;29;1074;-22
2021/11/03 00:09:55;;;;;;;;;;;;;;;;;;1010383;29;899;-23
2021/11/03 00:10:26;;;;;;;;;;;;;;;;;;1009481;29;1254;-22
2021/11/03 00:10:57;;;;;;;;;;;;;;;;;;1009421;29;1115;-23
2021/11/03 00:11:28;;;;;;;;;;;;;;;;;;1009239;29;1398;-21
2021/11/03 00:11:59;;;;;;;;;;;;;;;;;;1009773;29;959;-22
2021/11/03 00:12:30;;;;;;;;;;;;;;;;;;1010174;29;1043;-23
2021/11/03 00:13:00;;;;;;;;;;;;;;;;;;1010034;29;784;-21
2021/11/03 00:13:33;;;;;;;;;;;;;;;;;;1010099;29;1907;-22
2021/11/03 00:14:04;;;;;;;;;;;;;;;;;;1010320;29;920;-22
2021/11/03 00:14:34;;;;;;;;;;;;;;;;;;1010135;29;975;-22
2021/11/03 00:15:06;;;;;;;;;;;;;;;;;;1021215;29;1053;-22
2021/11/03 00:15:37;;;;;;;;;;;;;;;;;;1020999;29;1213;-22
2021/11/03 00:16:07;;;;;;;;;;;;;;;;;;1021217;29;1287;-22
2021/11/03 00:16:40;;;;;;;;;;;;;;;;;;1020832;29;1164;-22
2021/11/03 00:17:10;;;;;;;;;;;;;;;;;;1009620;29;1062;-22
2021/11/03 00:17:41;;;;;;;;;;;;;;;;;;1010037;29;987;-23
2021/11/03 00:18:11;;;;;;;;;;;;;;;;;;1010089;29;1263;-22
2021/11/03 00:18:42;;;;;;;;;;;;;;;;;;1010391;29;1247;-22
2021/11/03 00:19:12;;;;;;;;;;;;;;;;;;1010085;29;1025;-21
2021/11/03 00:19:43;;;;;;;;;;;;;;;;;;1010151;29;930;-22
2021/11/03 00:20:14;;;;;;;;;;;;;;;;;;1010270;29;962;-22
2021/11/03 00:20:45;;;;;;;;;;;;;;;;;;1010767;29;1310;-23
2021/11/03 00:21:15;;;;;;;;;;;;;;;;;;1010220;29;982;-22
2021/11/03 00:21:48;;;;;;;;;;;;;;;;;;1010301;29;954;-21
2021/11/03 00:22:19;;;;;;;;;;;;;;;;;;1010053;29;956;-23
2021/11/03 00:22:50;;;;;;;;;;;;;;;;;;1010670;29;1360;-22
2021/11/03 00:23:20;;;;;;;;;;;;;;;;;;1010182;29;995;-22
2021/11/03 00:23:51;;;;;;;;;;;;;;;;;;1010716;29;1207;-22
2021/11/03 00:24:22;;;;;;;;;;;;;;;;;;1021083;29;1050;-23
2021/11/03 00:24:52;;;;;;;;;;;;;;;;;;1021363;29;965;-21
2021/11/03 00:25:23;;;;;;;;;;;;;;;;;;1020994;29;1096;-23
2021/11/03 00:26:03;;;;;;;;;;;;;;;;;;1021355;29;822;-22
2021/11/03 00:26:33;;;;;;;;;;;;;;;;;;1010218;29;855;-21
2021/11/03 00:27:04;;;;;;;;;;;;;;;;;;1010306;29;1035;-22
2021/11/03 00:27:34;;;;;;;;;;;;;;;;;;1013429;29;1087;-21
2021/11/03 00:28:04;;;;;;;;;;;;;;;;;;1017777;29;835;-23
2021/11/03 00:28:35;;;;;;;;;;;;;;;;;;1017427;29;1305;-22
2021/11/03 00:29:05;;;;;;;;;;;;;;;;;;1017471;29;1247;-22
2021/11/03 00:29:36;;;;;;;;;;;;;;;;;;1024590;28;1114;-22
2021/11/03 00:30:06;;;;;;;;;;;;;;;;;;1021541;29;1044;-22
2021/11/03 00:30:37;;;;;;;;;;;;;;;;;;1021440;29;871;-21
2021/11/03 00:31:07;;;;;;;;;;;;;;;;;;1017871;29;1344;-22
2021/11/03 00:31:37;;;;;;;;;;;;;;;;;;1017425;29;1158;-22
2021/11/03 00:32:08;;;;;;;;;;;;;;;;;;1017621;29;892;-20
2021/11/03 00:32:39;;;;;;;;;;;;;;;;;;1017519;29;1201;-22
2021/11/03 00:33:10;;;;;;;;;;;;;;;;;;1017534;29;1114;-21
2021/11/03 00:33:40;;;;;;;;;;;;;;;;;;1013482;29;1910;-22
2021/11/03 00:34:11;;;;;;;;;;;;;;;;;;1013399;29;984;-22
2021/11/03 00:34:41;;;;;;;;;;;;;;;;;;1017321;29;1134;-22
2021/11/03 00:35:12;;;;;;;;;;;;;;;;;;1021133;29;979;-22
2021/11/03 00:35:43;;;;;;;;;;;;;;;;;;1021279;29;824;-22
2021/11/03 00:36:13;;;;;;;;;;;;;;;;;;1021452;29;1432;-22
2021/11/03 00:36:44;;;;;;;;;;;;;;;;;;1013022;29;1023;-23
2021/11/03 00:37:14;;;;;;;;;;;;;;;;;;1013315;29;1262;-22
2021/11/03 00:37:45;;;;;;;;;;;;;;;;;;1005598;29;1055;-22
2021/11/03 00:38:16;;;;;;;;;;;;;;;;;;1008965;29;1442;-22
2021/11/03 00:38:49;;;;;;;;;;;;;;;;;;1009694;29;1238;-22
2021/11/03 00:39:22;;;;;;;;;;;;;;;;;;1010285;29;947;-23
2021/11/03 00:39:53;;;;;;;;;;;;;;;;;;1017007;29;1304;-22
2021/11/03 00:40:23;;;;;;;;;;;;;;;;;;1013267;29;1606;-22
2021/11/03 00:40:55;;;;;;;;;;;;;;;;;;1021381;29;1278;-22
2021/11/03 00:41:26;;;;;;;;;;;;;;;;;;1021329;29;1194;-22
2021/11/03 00:41:57;;;;;;;;;;;;;;;;;;1021397;29;1147;-22
2021/11/03 00:42:27;;;;;;;;;;;;;;;;;;1016959;29;1364;-22
2021/11/03 00:43:01;;;;;;;;;;;;;;;;;;1009771;29;1045;-22
2021/11/03 00:43:34;;;;;;;;;;;;;;;;;;1014180;29;1210;-22
2021/11/03 00:44:06;;;;;;;;;;;;;;;;;;1014574;29;1223;-23
2021/11/03 00:44:37;;;;;;;;;;;;;;;;;;1025057;28;1125;-22
2021/11/03 00:45:08;;;;;;;;;;;;;;;;;;1020546;29;1362;-21
2021/11/03 00:45:38;;;;;;;;;;;;;;;;;;1017222;29;843;-22
2021/11/03 00:46:12;;;;;;;;;;;;;;;;;;1020894;29;1412;-22
2021/11/03 00:46:42;;;;;;;;;;;;;;;;;;1017382;29;980;-22
2021/11/03 00:47:13;;;;;;;;;;;;;;;;;;1017266;29;1347;-22
2021/11/03 00:47:44;;;;;;;;;;;;;;;;;;1017128;29;1339;-22
2021/11/03 00:48:16;;;;;;;;;;;;;;;;;;1013397;29;1564;-23
2021/11/03 00:48:47;;;;;;;;;;;;;;;;;;1013287;29;887;-23
2021/11/03 00:49:19;;;;;;;;;;;;;;;;;;1012774;29;1328;-22
2021/11/03 00:49:49;;;;;;;;;;;;;;;;;;1013973;29;1157;-22
2021/11/03 00:50:22;;;;;;;;;;;;;;;;;;1017671;29;858;-21
2021/11/03 00:50:54;;;;;;;;;;;;;;;;;;1006497;29;1343;-22
2021/11/03 00:51:24;;;;;;;;;;;;;;;;;;1008629;29;1201;-22
2021/11/03 00:51:58;;;;;;;;;;;;;;;;;;1009305;29;1403;-23
2021/11/03 00:52:32;;;;;;;;;;;;;;;;;;1007290;29;849;-23
2021/11/03 00:53:05;;;;;;;;;;;;;;;;;;1009512;29;1373;-22
2021/11/03 00:53:35;;;;;;;;;;;;;;;;;;1008307;29;1903;-22
2021/11/03 00:54:05;;;;;;;;;;;;;;;;;;1013677;29;1142;-22
2021/11/03 00:54:36;;;;;;;;;;;;;;;;;;1017719;29;1093;-22
2021/11/03 00:55:07;;;;;;;;;;;;;;;;;;1009261;29;965;-21
2021/11/03 00:55:39;;;;;;;;;;;;;;;;;;1008921;29;1356;-22
2021/11/03 00:56:10;;;;;;;;;;;;;;;;;;1005724;29;1283;-22
2021/11/03 00:56:41;;;;;;;;;;;;;;;;;;1002389;29;1320;-22
2021/11/03 00:57:12;;;;;;;;;;;;;;;;;;1016863;29;1091;-22
2021/11/03 00:57:43;;;;;;;;;;;;;;;;;;1012751;29;1322;-23
2021/11/03 00:58:13;;;;;;;;;;;;;;;;;;1005356;29;1353;-21
2021/11/03 00:58:45;;;;;;;;;;;;;;;;;;1005603;29;1202;-22
2021/11/03 00:59:16;;;;;;;;;;;;;;;;;;1009520;29;1269;-22
2021/11/03 00:59:51;;;;;;;;;;;;;;;;;;1013641;29;1166;-22
2021/11/03 01:00:22;;;;;;;;;;;;;;;;;;1014052;29;886;-22
2021/11/03 01:00:54;;;;;;;;;;;;;;;;;;1013542;29;1061;-22
2021/11/03 01:01:24;;;;;;;;;;;;;;;;;;1012895;29;987;-22
2021/11/03 01:01:54;;;;;;;;;;;;;;;;;;1009669;29;1070;-22
2021/11/03 01:02:25;;;;;;;;;;;;;;;;;;1009825;29;982;-22
2021/11/03 01:02:56;;;;;;;;;;;;;;;;;;1017468;29;1417;-22
2021/11/03 01:03:29;;;;;;;;;;;;;;;;;;1017505;29;1154;-22
2021/11/03 01:04:00;;;;;;;;;;;;;;;;;;1017169;29;1104;-21
2021/11/03 01:04:30;;;;;;;;;;;;;;;;;;1013080;29;1236;-21
2021/11/03 01:05:01;;;;;;;;;;;;;;;;;;1009146;29;1070;-22
2021/11/03 01:05:37;;;;;;;;;;;;;;;;;;1009279;29;848;-22
2021/11/03 01:06:09;;;;;;;;;;;;;;;;;;1014520;29;904;-23
2021/11/03 01:06:39;;;;;;;;;;;;;;;;;;1013396;29;1700;-22
2021/11/03 01:07:10;;;;;;;;;;;;;;;;;;1013650;29;1023;-22
2021/11/03 01:07:41;;;;;;;;;;;;;;;;;;1013326;29;1106;-22
2021/11/03 01:08:13;;;;;;;;;;;;;;;;;;1009989;29;976;-22
2021/11/03 01:08:49;;;;;;;;;;;;;;;;;;1017403;29;1607;-22
2021/11/03 01:09:39;;;;;;;;;;;;;;;;;;1013164;29;1150;-23
2021/11/03 01:10:11;;;;;;;;;;;;;;;;;;1013219;29;969;-22
2021/11/03 01:10:44;;;;;;;;;;;;;;;;;;1009694;29;1068;-22
2021/11/03 01:11:15;;;;;;;;;;;;;;;;;;1009572;29;1111;-22
2021/11/03 01:11:46;;;;;;;;;;;;;;;;;;1001888;29;1121;-21
2021/11/03 01:12:16;;;;;;;;;;;;;;;;;;1005461;29;1194;-23
2021/11/03 01:12:47;;;;;;;;;;;;;;;;;;1005598;29;957;-21
2021/11/03 01:13:20;;;;;;;;;;;;;;;;;;1005360;29;1074;-21
2021/11/03 01:13:50;;;;;;;;;;;;;;;;;;1010201;29;1907;-22
2021/11/03 01:14:21;;;;;;;;;;;;;;;;;;1016752;29;1461;-22
2021/11/03 01:14:52;;;;;;;;;;;;;;;;;;1016872;29;1050;-22
2021/11/03 01:15:23;;;;;;;;;;;;;;;;;;1016993;29;1177;-22
2021/11/03 01:15:57;;;;;;;;;;;;;;;;;;1008702;29;1262;-22
2021/11/03 01:16:28;;;;;;;;;;;;;;;;;;1009355;29;990;-22
2021/11/03 01:16:58;;;;;;;;;;;;;;;;;;1012766;29;1328;-22
2021/11/03 01:17:29;;;;;;;;;;;;;;;;;;1009854;29;1323;-22
2021/11/03 01:18:01;;;;;;;;;;;;;;;;;;1012777;29;1196;-22
2021/11/03 01:18:32;;;;;;;;;;;;;;;;;;1008584;29;1539;-21
2021/11/03 01:19:04;;;;;;;;;;;;;;;;;;1004885;29;1123;-22
2021/11/03 01:19:34;;;;;;;;;;;;;;;;;;1006261;29;1180;-22
2021/11/03 01:20:06;;;;;;;;;;;;;;;;;;1005331;29;1598;-22
2021/11/03 01:20:37;;;;;;;;;;;;;;;;;;1009447;29;1036;-21
2021/11/03 01:21:08;;;;;;;;;;;;;;;;;;1012725;29;1524;-22
2021/11/03 01:21:39;;;;;;;;;;;;;;;;;;1009371;29;1150;-22
2021/11/03 01:22:09;;;;;;;;;;;;;;;;;;1009142;29;1190;-23
2021/11/03 01:22:40;;;;;;;;;;;;;;;;;;1013013;29;1117;-22
2021/11/03 01:23:10;;;;;;;;;;;;;;;;;;1009341;29;1018;-20
2021/11/03 01:23:41;;;;;;;;;;;;;;;;;;1005236;29;1244;-22
2021/11/03 01:24:11;;;;;;;;;;;;;;;;;;1009478;29;977;-21
2021/11/03 01:24:42;;;;;;;;;;;;;;;;;;1013489;29;923;-22
2021/11/03 01:25:14;;;;;;;;;;;;;;;;;;1013492;29;1175;-22
2021/11/03 01:25:44;;;;;;;;;;;;;;;;;;1017165;29;1222;-22
2021/11/03 01:26:14;;;;;;;;;;;;;;;;;;1009764;29;942;-21
2021/11/03 01:26:46;;;;;;;;;;;;;;;;;;1009954;29;844;-23
2021/11/03 01:27:19;;;;;;;;;;;;;;;;;;1009719;29;1118;-22
2021/11/03 01:27:49;;;;;;;;;;;;;;;;;;1009400;29;1232;-22
2021/11/03 01:28:20;;;;;;;;;;;;;;;;;;1009084;29;1095;-22
2021/11/03 01:28:51;;;;;;;;;;;;;;;;;;1012998;29;1565;-22
2021/11/03 01:29:22;;;;;;;;;;;;;;;;;;1011924;29;1682;-21
2021/11/03 01:29:55;;;;;;;;;;;;;;;;;;1012125;29;1224;-23
2021/11/03 01:30:25;;;;;;;;;;;;;;;;;;1012996;29;1145;-23
2021/11/03 01:30:55;;;;;;;;;;;;;;;;;;1009983;29;1889;-22
2021/11/03 01:31:26;;;;;;;;;;;;;;;;;;1013468;29;1479;-21
2021/11/03 01:31:57;;;;;;;;;;;;;;;;;;1013262;29;1387;-22
2021/11/03 01:32:27;;;;;;;;;;;;;;;;;;1013189;29;1802;-22
2021/11/03 01:32:58;;;;;;;;;;;;;;;;;;1013051;29;1146;-22
2021/11/03 01:33:32;;;;;;;;;;;;;;;;;;1016979;29;1906;-22
2021/11/03 01:34:03;;;;;;;;;;;;;;;;;;1020887;29;990;-20
2021/11/03 01:34:34;;;;;;;;;;;;;;;;;;1016940;29;1568;-22
2021/11/03 01:35:06;;;;;;;;;;;;;;;;;;1017172;29;1041;-22
2021/11/03 01:35:37;;;;;;;;;;;;;;;;;;1010066;29;1085;-22
2021/11/03 01:36:07;;;;;;;;;;;;;;;;;;1009849;29;1265;-21
2021/11/03 01:36:38;;;;;;;;;;;;;;;;;;1010127;29;1089;-21
2021/11/03 01:37:08;;;;;;;;;;;;;;;;;;1017294;29;1310;-23
2021/11/03 01:37:40;;;;;;;;;;;;;;;;;;1013173;29;1312;-20
2021/11/03 01:38:10;;;;;;;;;;;;;;;;;;1017691;29;899;-22
2021/11/03 01:38:46;;;;;;;;;;;;;;;;;;1016865;29;1418;-22
2021/11/03 01:39:16;;;;;;;;;;;;;;;;;;1014239;29;1009;-22
2021/11/03 01:39:47;;;;;;;;;;;;;;;;;;1016544;29;1904;-22
2021/11/03 01:40:23;;;;;;;;;;;;;;;;;;1017398;29;1198;-22
2021/11/03 01:40:53;;;;;;;;;;;;;;;;;;1017116;29;1354;-21
2021/11/03 01:41:24;;;;;;;;;;;;;;;;;;1017551;29;1151;-21
2021/11/03 01:41:55;;;;;;;;;;;;;;;;;;1015953;29;1142;-23
2021/11/03 01:42:27;;;;;;;;;;;;;;;;;;1016350;29;1179;-23
2021/11/03 01:42:57;;;;;;;;;;;;;;;;;;1000942;29;1270;-22
2021/11/03 01:43:48;;;;;;;;;;;;;;;;;;1001646;29;1058;-22
2021/11/03 01:44:20;;;;;;;;;;;;;;;;;;998948;29;1191;-22
2021/11/03 01:44:51;;;;;;;;;;;;;;;;;;1010188;29;1288;-23
2021/11/03 01:45:23;;;;;;;;;;;;;;;;;;1012768;29;918;-22
2021/11/03 01:46:13;;;;;;;;;;;;;;;;;;1012810;29;1283;-22
2021/11/03 01:46:47;;;;;;;;;;;;;;;;;;1009038;29;1462;-22
2021/11/03 01:47:42;;;;;;;;;;;;;;;;;;1013244;29;1274;-22
2021/11/03 01:48:13;;;;;;;;;;;;;;;;;;1016983;29;1513;-22
2021/11/03 01:48:44;;;;;;;;;;;;;;;;;;1009069;29;1354;-22
2021/11/03 01:49:21;;;;;;;;;;;;;;;;;;1006178;29;1149;-23
2021/11/03 01:49:57;;;;;;;;;;;;;;;;;;999296;29;1759;-22
2021/11/03 01:50:31;;;;;;;;;;;;;;;;;;1000837;29;1255;-23
2021/11/03 01:51:02;;;;;;;;;;;;;;;;;;1011133;29;1243;-22
2021/11/03 01:51:55;;;;;;;;;;;;;;;;;;1009669;29;1624;-22
2021/11/03 01:52:25;;;;;;;;;;;;;;;;;;1009269;29;1191;-22
2021/11/03 01:53:02;;;;;;;;;;;;;;;;;;1006294;29;2192;-22
2021/11/03 01:53:33;;;;;;;;;;;;;;;;;;1008986;29;1906;-22
2021/11/03 01:54:05;;;;;;;;;;;;;;;;;;1010679;29;1176;-22
2021/11/03 01:54:55;;;;;;;;;;;;;;;;;;1012459;29;1002;-22
2021/11/03 01:55:33;;;;;;;;;;;;;;;;;;1017255;29;1545;-22
2021/11/03 01:56:07;;;;;;;;;;;;;;;;;;1017322;29;868;-22
2021/11/03 01:56:38;;;;;;;;;;;;;;;;;;1020889;29;1178;-21
2021/11/03 01:57:10;;;;;;;;;;;;;;;;;;1016601;29;1336;-23
2021/11/03 01:57:46;;;;;;;;;;;;;;;;;;1017243;29;1324;-22
2021/11/03 01:58:19;;;;;;;;;;;;;;;;;;1016036;29;1221;-22
2021/11/03 01:58:52;;;;;;;;;;;;;;;;;;1018470;29;1433;-21
2021/11/03 01:59:25;;;;;;;;;;;;;;;;;;1015912;29;1657;-21
2021/11/03 01:59:57;;;;;;;;;;;;;;;;;;1016708;29;1419;-22
2021/11/03 02:00:31;;;;;;;;;;;;;;;;;;1016140;29;1182;-21
2021/11/03 02:01:05;;;;;;;;;;;;;;;;;;1018131;29;1541;-21
2021/11/03 02:01:36;;;;;;;;;;;;;;;;;;1015589;29;1269;-22
2021/11/03 02:02:11;;;;;;;;;;;;;;;;;;1007804;29;1377;-21
2021/11/03 02:02:42;;;;;;;;;;;;;;;;;;1004496;29;1037;-22
2021/11/03 02:03:21;;;;;;;;;;;;;;;;;;1008744;29;1224;-22
2021/11/03 02:03:55;;;;;;;;;;;;;;;;;;1017896;29;1325;-22
2021/11/03 02:04:30;;;;;;;;;;;;;;;;;;1020425;29;1427;-22
2021/11/03 02:05:01;;;;;;;;;;;;;;;;;;1015365;29;1391;-22
2021/11/03 02:05:32;;;;;;;;;;;;;;;;;;1015554;29;1704;-22
2021/11/03 02:06:08;;;;;;;;;;;;;;;;;;1013337;29;887;-23
2021/11/03 02:06:38;;;;;;;;;;;;;;;;;;1009645;29;1396;-21
2021/11/03 02:07:17;;;;;;;;;;;;;;;;;;1012365;29;1238;-22
2021/11/03 02:07:48;;;;;;;;;;;;;;;;;;1013377;29;1241;-22
2021/11/03 02:08:20;;;;;;;;;;;;;;;;;;1018524;29;1190;-22
2021/11/03 02:08:51;;;;;;;;;;;;;;;;;;1021049;28;1273;-22
2021/11/03 02:09:27;;;;;;;;;;;;;;;;;;1019895;29;1180;-22
2021/11/03 02:09:57;;;;;;;;;;;;;;;;;;1012313;29;1277;-22
2021/11/03 02:10:29;;;;;;;;;;;;;;;;;;1011835;29;1182;-23
2021/11/03 02:11:04;;;;;;;;;;;;;;;;;;1013612;29;1491;-22
2021/11/03 02:11:38;;;;;;;;;;;;;;;;;;1018100;29;1003;-22
2021/11/03 02:12:16;;;;;;;;;;;;;;;;;;1020000;29;943;-22
2021/11/03 02:12:46;;;;;;;;;;;;;;;;;;1019168;29;1025;-22
2021/11/03 02:13:17;;;;;;;;;;;;;;;;;;1013282;29;1164;-22
2021/11/03 02:13:56;;;;;;;;;;;;;;;;;;1008899;29;1915;-22
2021/11/03 02:14:26;;;;;;;;;;;;;;;;;;1004237;29;1235;-22
2021/11/03 02:14:57;;;;;;;;;;;;;;;;;;1000866;29;1459;-21
2021/11/03 02:15:28;;;;;;;;;;;;;;;;;;1003518;29;982;-22
2021/11/03 02:15:58;;;;;;;;;;;;;;;;;;1013293;29;1705;-22
2021/11/03 02:16:29;;;;;;;;;;;;;;;;;;1017266;29;898;-22
2021/11/03 02:17:00;;;;;;;;;;;;;;;;;;1020695;29;1178;-23
2021/11/03 02:17:31;;;;;;;;;;;;;;;;;;1020365;29;1101;-22
2021/11/03 02:18:02;;;;;;;;;;;;;;;;;;1012954;29;1298;-21
2021/11/03 02:18:34;;;;;;;;;;;;;;;;;;1016724;29;1273;-22
2021/11/03 02:19:09;;;;;;;;;;;;;;;;;;1012587;29;1215;-23
2021/11/03 02:19:42;;;;;;;;;;;;;;;;;;1013019;29;1462;-22
2021/11/03 02:20:14;;;;;;;;;;;;;;;;;;1016922;29;1408;-22
2021/11/03 02:20:47;;;;;;;;;;;;;;;;;;1018282;29;1256;-22
2021/11/03 02:21:21;;;;;;;;;;;;;;;;;;1016399;29;1333;-22
2021/11/03 02:21:55;;;;;;;;;;;;;;;;;;1015630;29;1228;-22
2021/11/03 02:22:34;;;;;;;;;;;;;;;;;;1017318;29;1460;-22
2021/11/03 02:23:28;;;;;;;;;;;;;;;;;;1015185;29;1164;-21
2021/11/03 02:24:19;;;;;;;;;;;;;;;;;;1012652;29;1069;-22
2021/11/03 02:24:55;;;;;;;;;;;;;;;;;;1010599;29;1303;-21
2021/11/03 02:25:28;;;;;;;;;;;;;;;;;;1009089;29;1385;-23
2021/11/03 02:26:07;;;;;;;;;;;;;;;;;;1013556;29;1470;-22
2021/11/03 02:26:41;;;;;;;;;;;;;;;;;;1013158;29;954;-22
2021/11/03 02:27:12;;;;;;;;;;;;;;;;;;1018889;29;1324;-22
2021/11/03 02:27:44;;;;;;;;;;;;;;;;;;1015702;29;1304;-22
2021/11/03 02:28:16;;;;;;;;;;;;;;;;;;1013400;29;1132;-21
2021/11/03 02:28:47;;;;;;;;;;;;;;;;;;1012812;29;957;-23
2021/11/03 02:29:21;;;;;;;;;;;;;;;;;;1009455;29;848;-21
2021/11/03 02:29:52;;;;;;;;;;;;;;;;;;1012651;29;1162;-21
2021/11/03 02:30:24;;;;;;;;;;;;;;;;;;1020714;29;1183;-22
2021/11/03 02:30:54;;;;;;;;;;;;;;;;;;1008855;29;1180;-21
2021/11/03 02:31:37;;;;;;;;;;;;;;;;;;1008883;29;1054;-22
2021/11/03 02:32:25;;;;;;;;;;;;;;;;;;1007425;29;926;-22
2021/11/03 02:33:00;;;;;;;;;;;;;;;;;;1013376;29;1166;-23
2021/11/03 02:33:34;;;;;;;;;;;;;;;;;;1016737;29;1966;-21
2021/11/03 02:34:06;;;;;;;;;;;;;;;;;;1017205;29;917;-22
2021/11/03 02:34:37;;;;;;;;;;;;;;;;;;1017876;29;1333;-22
2021/11/03 02:35:07;;;;;;;;;;;;;;;;;;1020157;29;979;-22
2021/11/03 02:35:37;;;;;;;;;;;;;;;;;;1012955;29;1246;-22
2021/11/03 02:36:08;;;;;;;;;;;;;;;;;;1012860;29;1376;-23
2021/11/03 02:36:53;;;;;;;;;;;;;;;;;;1016874;29;1280;-21
2021/11/03 02:37:27;;;;;;;;;;;;;;;;;;1019385;29;1027;-22
2021/11/03 02:37:58;;;;;;;;;;;;;;;;;;1017092;29;1300;-22
2021/11/03 02:38:34;;;;;;;;;;;;;;;;;;1014005;29;1236;-22
2021/11/03 02:39:06;;;;;;;;;;;;;;;;;;1009059;29;1629;-20
2021/11/03 02:39:45;;;;;;;;;;;;;;;;;;1013713;29;1336;-22
2021/11/03 02:40:24;;;;;;;;;;;;;;;;;;1017408;29;1069;-22
2021/11/03 02:41:01;;;;;;;;;;;;;;;;;;1023517;28;1162;-21
2021/11/03 02:41:33;;;;;;;;;;;;;;;;;;1017837;29;1296;-22
2021/11/03 02:42:05;;;;;;;;;;;;;;;;;;1017433;29;937;-22
2021/11/03 02:42:37;;;;;;;;;;;;;;;;;;1015673;29;1091;-22
2021/11/03 02:43:15;;;;;;;;;;;;;;;;;;1012888;29;1342;-20
2021/11/03 02:43:50;;;;;;;;;;;;;;;;;;1016899;29;1670;-23
2021/11/03 02:44:20;;;;;;;;;;;;;;;;;;1016958;29;1275;-22
2021/11/03 02:44:53;;;;;;;;;;;;;;;;;;1020607;29;1245;-22
2021/11/03 02:45:44;;;;;;;;;;;;;;;;;;1020256;29;1074;-22
2021/11/03 02:46:17;;;;;;;;;;;;;;;;;;1016522;29;1796;-22
2021/11/03 02:46:47;;;;;;;;;;;;;;;;;;1016933;29;1419;-21
2021/11/03 02:47:18;;;;;;;;;;;;;;;;;;1013120;29;1513;-22
2021/11/03 02:47:49;;;;;;;;;;;;;;;;;;1008721;29;1171;-22
2021/11/03 02:48:20;;;;;;;;;;;;;;;;;;1005762;29;876;-22
2021/11/03 02:48:51;;;;;;;;;;;;;;;;;;1005285;29;1390;-22
2021/11/03 02:49:21;;;;;;;;;;;;;;;;;;1009419;29;1308;-22
2021/11/03 02:49:54;;;;;;;;;;;;;;;;;;1017347;29;1427;-22
2021/11/03 02:50:25;;;;;;;;;;;;;;;;;;1016632;29;1489;-22
2021/11/03 02:50:58;;;;;;;;;;;;;;;;;;1017235;29;1147;-21
2021/11/03 02:51:36;;;;;;;;;;;;;;;;;;1009307;29;1360;-22
2021/11/03 02:52:21;;;;;;;;;;;;;;;;;;1009525;29;1155;-22
2021/11/03 02:52:51;;;;;;;;;;;;;;;;;;1009184;29;1248;-21
2021/11/03 02:53:22;;;;;;;;;;;;;;;;;;1012240;29;1441;-22
2021/11/03 02:53:54;;;;;;;;;;;;;;;;;;1015130;29;1918;-21
2021/11/03 02:54:24;;;;;;;;;;;;;;;;;;1013227;29;1161;-22
2021/11/03 02:54:55;;;;;;;;;;;;;;;;;;1009552;29;1333;-22
2021/11/03 02:55:26;;;;;;;;;;;;;;;;;;1012715;29;1442;-22
2021/11/03 02:55:57;;;;;;;;;;;;;;;;;;1013278;29;1186;-22
2021/11/03 02:56:29;;;;;;;;;;;;;;;;;;1017196;29;948;-21
2021/11/03 02:57:02;;;;;;;;;;;;;;;;;;1016376;29;1375;-22
2021/11/03 02:57:35;;;;;;;;;;;;;;;;;;1008626;29;1552;-22
2021/11/03 02:58:08;;;;;;;;;;;;;;;;;;1009248;29;1372;-22
2021/11/03 02:58:39;;;;;;;;;;;;;;;;;;1009343;29;804;-21
2021/11/03 02:59:13;;;;;;;;;;;;;;;;;;1010099;29;945;-22
2021/11/03 02:59:48;;;;;;;;;;;;;;;;;;1017231;29;2117;-22
2021/11/03 03:00:20;;;;;;;;;;;;;;;;;;1016895;29;1011;-22
2021/11/03 03:00:55;;;;;;;;;;;;;;;;;;1016760;29;1534;-22
2021/11/03 03:01:34;;;;;;;;;;;;;;;;;;1007445;29;1199;-22
2021/11/03 03:02:05;;;;;;;;;;;;;;;;;;1005110;29;1660;-23
2021/11/03 03:02:37;;;;;;;;;;;;;;;;;;1012923;29;1093;-22
2021/11/03 03:03:07;;;;;;;;;;;;;;;;;;1012814;29;1213;-22
2021/11/03 03:03:44;;;;;;;;;;;;;;;;;;1013472;29;904;-22
2021/11/03 03:04:27;;;;;;;;;;;;;;;;;;1014632;29;863;-23
2021/11/03 03:04:58;;;;;;;;;;;;;;;;;;1009629;29;956;-22
2021/11/03 03:05:29;;;;;;;;;;;;;;;;;;1016981;29;1147;-22
2021/11/03 03:06:02;;;;;;;;;;;;;;;;;;1020787;29;1407;-21
2021/11/03 03:06:33;;;;;;;;;;;;;;;;;;1017115;29;1469;-22
2021/11/03 03:07:04;;;;;;;;;;;;;;;;;;1012792;29;1178;-22
2021/11/03 03:07:35;;;;;;;;;;;;;;;;;;1008563;29;1100;-22
2021/11/03 03:08:05;;;;;;;;;;;;;;;;;;1009612;29;1158;-22
2021/11/03 03:08:39;;;;;;;;;;;;;;;;;;1009594;29;1154;-23
2021/11/03 03:09:10;;;;;;;;;;;;;;;;;;1013097;29;1132;-22
2021/11/03 03:09:41;;;;;;;;;;;;;;;;;;1016559;29;1384;-22
2021/11/03 03:10:13;;;;;;;;;;;;;;;;;;1013985;29;1175;-22
2021/11/03 03:10:44;;;;;;;;;;;;;;;;;;1016955;29;1165;-22
2021/11/03 03:11:14;;;;;;;;;;;;;;;;;;1016644;29;1302;-22
2021/11/03 03:11:49;;;;;;;;;;;;;;;;;;1016925;29;1293;-22
2021/11/03 03:12:21;;;;;;;;;;;;;;;;;;1016443;29;1298;-22
2021/11/03 03:12:57;;;;;;;;;;;;;;;;;;1017929;29;1341;-22
2021/11/03 03:13:28;;;;;;;;;;;;;;;;;;1019475;29;1362;-21
2021/11/03 03:13:58;;;;;;;;;;;;;;;;;;1016490;29;1931;-22
2021/11/03 03:14:33;;;;;;;;;;;;;;;;;;1012461;29;976;-22
2021/11/03 03:15:06;;;;;;;;;;;;;;;;;;1009495;29;864;-21
2021/11/03 03:15:37;;;;;;;;;;;;;;;;;;1016590;29;1010;-22
2021/11/03 03:16:08;;;;;;;;;;;;;;;;;;1008672;29;1388;-22
2021/11/03 03:16:41;;;;;;;;;;;;;;;;;;1008796;29;1378;-22
2021/11/03 03:17:13;;;;;;;;;;;;;;;;;;1008768;29;1576;-22
2021/11/03 03:17:43;;;;;;;;;;;;;;;;;;1009558;29;935;-22
2021/11/03 03:18:16;;;;;;;;;;;;;;;;;;1016461;29;1292;-21
2021/11/03 03:18:47;;;;;;;;;;;;;;;;;;1017502;29;1170;-23
2021/11/03 03:19:18;;;;;;;;;;;;;;;;;;1020894;29;1130;-22
2021/11/03 03:19:50;;;;;;;;;;;;;;;;;;1016494;29;1077;-23
2021/11/03 03:20:22;;;;;;;;;;;;;;;;;;1012564;29;1550;-22
2021/11/03 03:20:55;;;;;;;;;;;;;;;;;;1012691;29;954;-22
2021/11/03 03:21:27;;;;;;;;;;;;;;;;;;1016081;29;1085;-22
2021/11/03 03:21:58;;;;;;;;;;;;;;;;;;1016089;29;1154;-22
2021/11/03 03:22:34;;;;;;;;;;;;;;;;;;1015786;29;1284;-22
2021/11/03 03:23:05;;;;;;;;;;;;;;;;;;1013104;29;1075;-22
2021/11/03 03:23:35;;;;;;;;;;;;;;;;;;1016050;29;1332;-22
2021/11/03 03:24:07;;;;;;;;;;;;;;;;;;1009918;29;872;-22
2021/11/03 03:24:38;;;;;;;;;;;;;;;;;;1013296;29;1186;-22
2021/11/03 03:25:09;;;;;;;;;;;;;;;;;;1012196;29;1644;-21
2021/11/03 03:25:40;;;;;;;;;;;;;;;;;;1009325;29;1296;-22
2021/11/03 03:26:15;;;;;;;;;;;;;;;;;;1009560;29;1031;-22
2021/11/03 03:26:47;;;;;;;;;;;;;;;;;;1012528;29;1125;-21
2021/11/03 03:27:17;;;;;;;;;;;;;;;;;;1009147;29;1372;-21
2021/11/03 03:27:49;;;;;;;;;;;;;;;;;;1008320;29;1182;-21
2021/11/03 03:28:20;;;;;;;;;;;;;;;;;;1013050;29;1324;-21
2021/11/03 03:28:52;;;;;;;;;;;;;;;;;;1012562;29;1109;-22
2021/11/03 03:29:22;;;;;;;;;;;;;;;;;;1008803;29;1111;-22
2021/11/03 03:29:53;;;;;;;;;;;;;;;;;;1008224;29;1365;-22
2021/11/03 03:30:24;;;;;;;;;;;;;;;;;;1004841;29;1557;-21
2021/11/03 03:30:54;;;;;;;;;;;;;;;;;;1008965;29;1179;-22
2021/11/03 03:31:25;;;;;;;;;;;;;;;;;;1013349;29;1724;-22
2021/11/03 03:31:56;;;;;;;;;;;;;;;;;;1016591;29;1488;-22
2021/11/03 03:32:27;;;;;;;;;;;;;;;;;;1016941;29;1183;-21
2021/11/03 03:32:58;;;;;;;;;;;;;;;;;;1012606;29;1419;-22
2021/11/03 03:33:29;;;;;;;;;;;;;;;;;;1004967;29;1161;-22
2021/11/03 03:34:04;;;;;;;;;;;;;;;;;;1001446;29;2000;-23
2021/11/03 03:34:36;;;;;;;;;;;;;;;;;;1001143;29;1276;-23
2021/11/03 03:35:07;;;;;;;;;;;;;;;;;;1009657;29;1044;-22
2021/11/03 03:35:39;;;;;;;;;;;;;;;;;;1016821;29;1603;-21
2021/11/03 03:36:10;;;;;;;;;;;;;;;;;;1012822;29;1249;-22
2021/11/03 03:36:41;;;;;;;;;;;;;;;;;;1008900;29;1212;-22
2021/11/03 03:37:12;;;;;;;;;;;;;;;;;;1009194;29;841;-22
2021/11/03 03:37:43;;;;;;;;;;;;;;;;;;1009730;29;1363;-23
2021/11/03 03:38:14;;;;;;;;;;;;;;;;;;1013487;29;1026;-22
2021/11/03 03:38:44;;;;;;;;;;;;;;;;;;1013093;29;1170;-22
2021/11/03 03:39:18;;;;;;;;;;;;;;;;;;1013392;29;955;-22
2021/11/03 03:39:51;;;;;;;;;;;;;;;;;;1012652;29;1328;-22
2021/11/03 03:40:22;;;;;;;;;;;;;;;;;;1008993;29;1525;-22
2021/11/03 03:40:52;;;;;;;;;;;;;;;;;;1008989;29;1466;-21
2021/11/03 03:41:26;;;;;;;;;;;;;;;;;;1009185;29;1173;-21
2021/11/03 03:41:58;;;;;;;;;;;;;;;;;;1012871;29;1575;-22
2021/11/03 03:42:29;;;;;;;;;;;;;;;;;;1009770;29;1690;-22
2021/11/03 03:42:59;;;;;;;;;;;;;;;;;;1013827;29;1050;-22
2021/11/03 03:43:30;;;;;;;;;;;;;;;;;;1017458;29;1556;-22
2021/11/03 03:44:00;;;;;;;;;;;;;;;;;;1013882;29;1065;-22
2021/11/03 03:44:34;;;;;;;;;;;;;;;;;;1013996;29;1342;-22
2021/11/03 03:45:05;;;;;;;;;;;;;;;;;;1013379;29;1062;-22
2021/11/03 03:45:35;;;;;;;;;;;;;;;;;;1013769;29;1751;-22
2021/11/03 03:46:06;;;;;;;;;;;;;;;;;;1014406;29;1019;-23